sensor_id;sensor_type;location;lat;lon;timestamp;temperature;humidity
796;DHT22;381;48.770;9.188;2023-07-08T00:03:22;23.30;55.90
796;DHT22;381;48.770;9.188;2023-07-08T00:08:24;23.20;57.00
796;DHT22;381;48.770;9.188;2023-07-08T00:13:28;23.20;56.40
796;DHT22;381;48.770;9.188;2023-07-08T00:18:30;23.10;55.90
796;DHT22;381;48.770;9.188;2023-07-08T00:23:32;23.10;55.40
796;DHT22;381;48.770;9.188;2023-07-08T00:28:38;23.10;55.50
796;DHT22;381;48.770;9.188;2023-07-08T00:33:40;23.00;55.70
796;DHT22;381;48.770;9.188;2023-07-08T00:38:42;23.00;56.60
796;DHT22;381;48.770;9.188;2023-07-08T00:43:49;23.00;57.10
796;DHT22;381;48.770;9.188;2023-07-08T00:48:55;22.90;57.60
796;DHT22;381;48.770;9.188;2023-07-08T00:53:58;22.90;56.90
796;DHT22;381;48.770;9.188;2023-07-08T00:59:03;22.90;57.60
796;DHT22;381;48.770;9.188;2023-07-08T01:04:09;22.90;57.80
796;DHT22;381;48.770;9.188;2023-07-08T01:09:14;22.80;56.90
796;DHT22;381;48.770;9.188;2023-07-08T01:14:20;22.80;56.90
796;DHT22;381;48.770;9.188;2023-07-08T01:19:24;22.70;57.40
796;DHT22;381;48.770;9.188;2023-07-08T01:24:36;22.70;57.70
796;DHT22;381;48.770;9.188;2023-07-08T01:29:40;22.60;57.70
796;DHT22;381;48.770;9.188;2023-07-08T01:34:42;22.50;58.00
796;DHT22;381;48.770;9.188;2023-07-08T01:40:25;22.50;57.30
796;DHT22;381;48.770;9.188;2023-07-08T01:45:32;22.40;57.80
796;DHT22;381;48.770;9.188;2023-07-08T01:50:38;22.30;57.50
796;DHT22;381;48.770;9.188;2023-07-08T01:55:43;22.30;57.30
796;DHT22;381;48.770;9.188;2023-07-08T02:00:45;22.20;57.80
796;DHT22;381;48.770;9.188;2023-07-08T02:05:49;22.10;58.40
796;DHT22;381;48.770;9.188;2023-07-08T02:10:56;22.10;58.60
796;DHT22;381;48.770;9.188;2023-07-08T02:15:58;22.00;59.20
796;DHT22;381;48.770;9.188;2023-07-08T02:21:01;22.00;58.60
796;DHT22;381;48.770;9.188;2023-07-08T02:26:04;21.90;59.00
796;DHT22;381;48.770;9.188;2023-07-08T02:31:06;21.90;58.70
796;DHT22;381;48.770;9.188;2023-07-08T02:36:09;21.80;58.60
796;DHT22;381;48.770;9.188;2023-07-08T02:41:12;21.80;59.10
796;DHT22;381;48.770;9.188;2023-07-08T02:46:14;21.80;58.00
796;DHT22;381;48.770;9.188;2023-07-08T02:51:16;21.80;58.80
796;DHT22;381;48.770;9.188;2023-07-08T02:56:20;21.80;58.10
796;DHT22;381;48.770;9.188;2023-07-08T03:01:23;21.80;58.10
796;DHT22;381;48.770;9.188;2023-07-08T03:06:28;21.90;58.50
796;DHT22;381;48.770;9.188;2023-07-08T03:11:31;21.90;58.50
796;DHT22;381;48.770;9.188;2023-07-08T03:16:33;21.90;58.80
796;DHT22;381;48.770;9.188;2023-07-08T03:21:35;21.90;59.40
796;DHT22;381;48.770;9.188;2023-07-08T03:26:39;21.90;59.60
796;DHT22;381;48.770;9.188;2023-07-08T03:31:41;21.90;58.80
796;DHT22;381;48.770;9.188;2023-07-08T03:36:45;21.90;57.20
796;DHT22;381;48.770;9.188;2023-07-08T03:41:51;21.90;57.60
796;DHT22;381;48.770;9.188;2023-07-08T03:46:54;21.90;58.60
796;DHT22;381;48.770;9.188;2023-07-08T03:51:56;21.90;59.00
796;DHT22;381;48.770;9.188;2023-07-08T03:57:00;21.90;59.40
796;DHT22;381;48.770;9.188;2023-07-08T04:02:02;21.90;59.70
796;DHT22;381;48.770;9.188;2023-07-08T04:07:05;21.90;59.20
796;DHT22;381;48.770;9.188;2023-07-08T04:12:09;21.80;59.10
796;DHT22;381;48.770;9.188;2023-07-08T04:17:12;21.80;60.00
796;DHT22;381;48.770;9.188;2023-07-08T04:22:14;21.80;59.70
796;DHT22;381;48.770;9.188;2023-07-08T04:27:18;21.70;60.20
796;DHT22;381;48.770;9.188;2023-07-08T04:32:20;21.70;61.90
796;DHT22;381;48.770;9.188;2023-07-08T04:37:25;21.80;61.80
796;DHT22;381;48.770;9.188;2023-07-08T04:42:29;21.80;61.10
796;DHT22;381;48.770;9.188;2023-07-08T04:47:31;21.90;61.50
796;DHT22;381;48.770;9.188;2023-07-08T04:52:34;22.10;60.70
796;DHT22;381;48.770;9.188;2023-07-08T04:57:37;22.10;60.80
796;DHT22;381;48.770;9.188;2023-07-08T05:02:39;22.30;62.60
796;DHT22;381;48.770;9.188;2023-07-08T05:07:41;22.40;62.40
796;DHT22;381;48.770;9.188;2023-07-08T05:12:46;22.50;62.50
796;DHT22;381;48.770;9.188;2023-07-08T05:17:50;22.50;63.20
796;DHT22;381;48.770;9.188;2023-07-08T05:28:05;22.50;65.20
796;DHT22;381;48.770;9.188;2023-07-08T05:33:07;22.70;64.20
796;DHT22;381;48.770;9.188;2023-07-08T05:38:09;23.00;62.70
796;DHT22;381;48.770;9.188;2023-07-08T05:43:13;23.30;63.70
796;DHT22;381;48.770;9.188;2023-07-08T05:48:15;23.60;65.10
796;DHT22;381;48.770;9.188;2023-07-08T05:53:18;23.70;62.80
796;DHT22;381;48.770;9.188;2023-07-08T05:58:22;23.90;62.20
796;DHT22;381;48.770;9.188;2023-07-08T06:03:24;23.90;62.90
796;DHT22;381;48.770;9.188;2023-07-08T06:08:26;24.00;63.90
796;DHT22;381;48.770;9.188;2023-07-08T06:13:30;23.90;62.70
796;DHT22;381;48.770;9.188;2023-07-08T06:18:32;23.90;66.60
796;DHT22;381;48.770;9.188;2023-07-08T06:23:34;23.90;63.90
796;DHT22;381;48.770;9.188;2023-07-08T06:28:37;23.90;62.00
796;DHT22;381;48.770;9.188;2023-07-08T06:33:39;24.00;63.90
796;DHT22;381;48.770;9.188;2023-07-08T06:38:41;24.10;62.80
796;DHT22;381;48.770;9.188;2023-07-08T06:43:45;24.30;65.40
796;DHT22;381;48.770;9.188;2023-07-08T06:48:56;24.40;64.20
796;DHT22;381;48.770;9.188;2023-07-08T06:53:58;24.50;62.50
796;DHT22;381;48.770;9.188;2023-07-08T06:59:02;24.70;61.80
796;DHT22;381;48.770;9.188;2023-07-08T07:04:04;25.10;62.10
796;DHT22;381;48.770;9.188;2023-07-08T07:09:06;25.40;60.70
796;DHT22;381;48.770;9.188;2023-07-08T07:14:09;25.50;59.80
796;DHT22;381;48.770;9.188;2023-07-08T07:19:11;25.50;61.40
796;DHT22;381;48.770;9.188;2023-07-08T07:24:13;25.50;62.10
796;DHT22;381;48.770;9.188;2023-07-08T07:29:17;25.60;60.40
796;DHT22;381;48.770;9.188;2023-07-08T07:34:19;25.60;63.00
796;DHT22;381;48.770;9.188;2023-07-08T07:39:22;25.60;62.70
796;DHT22;381;48.770;9.188;2023-07-08T07:44:25;25.80;63.10
796;DHT22;381;48.770;9.188;2023-07-08T07:49:27;25.80;63.10
796;DHT22;381;48.770;9.188;2023-07-08T07:54:29;26.00;61.00
796;DHT22;381;48.770;9.188;2023-07-08T07:59:33;26.10;61.40
796;DHT22;381;48.770;9.188;2023-07-08T08:04:35;26.60;62.50
796;DHT22;381;48.770;9.188;2023-07-08T08:09:37;27.20;61.20
796;DHT22;381;48.770;9.188;2023-07-08T08:14:41;27.90;59.60
796;DHT22;381;48.770;9.188;2023-07-08T08:19:44;28.50;57.90
796;DHT22;381;48.770;9.188;2023-07-08T08:24:46;29.20;55.50
796;DHT22;381;48.770;9.188;2023-07-08T08:29:49;29.30;56.40
796;DHT22;381;48.770;9.188;2023-07-08T08:34:51;29.30;55.70
796;DHT22;381;48.770;9.188;2023-07-08T08:39:53;29.50;56.50
796;DHT22;381;48.770;9.188;2023-07-08T08:44:57;29.90;55.40
796;DHT22;381;48.770;9.188;2023-07-08T08:50:03;30.50;53.40
796;DHT22;381;48.770;9.188;2023-07-08T08:55:11;30.80;52.90
796;DHT22;381;48.770;9.188;2023-07-08T09:00:25;30.60;53.10
796;DHT22;381;48.770;9.188;2023-07-08T09:05:28;30.50;54.80
796;DHT22;381;48.770;9.188;2023-07-08T09:10:38;30.90;53.60
796;DHT22;381;48.770;9.188;2023-07-08T09:15:43;31.60;52.10
796;DHT22;381;48.770;9.188;2023-07-08T09:20:45;32.20;51.20
796;DHT22;381;48.770;9.188;2023-07-08T09:25:52;32.50;51.60
796;DHT22;381;48.770;9.188;2023-07-08T09:30:56;32.50;51.60
796;DHT22;381;48.770;9.188;2023-07-08T09:35:58;32.90;50.60
796;DHT22;381;48.770;9.188;2023-07-08T09:41:01;33.50;50.00
796;DHT22;381;48.770;9.188;2023-07-08T09:46:05;34.10;48.70
796;DHT22;381;48.770;9.188;2023-07-08T09:51:11;34.70;48.00
796;DHT22;381;48.770;9.188;2023-07-08T09:56:13;35.70;48.20
796;DHT22;381;48.770;9.188;2023-07-08T10:01:21;36.60;45.80
796;DHT22;381;48.770;9.188;2023-07-08T10:06:27;37.90;45.50
796;DHT22;381;48.770;9.188;2023-07-08T10:11:31;39.40;43.20
796;DHT22;381;48.770;9.188;2023-07-08T10:16:35;39.70;42.70
796;DHT22;381;48.770;9.188;2023-07-08T10:21:43;38.60;42.30
796;DHT22;381;48.770;9.188;2023-07-08T10:26:49;36.90;43.30
796;DHT22;381;48.770;9.188;2023-07-08T10:32:02;35.40;45.30
796;DHT22;381;48.770;9.188;2023-07-08T10:37:15;34.30;46.70
796;DHT22;381;48.770;9.188;2023-07-08T10:42:32;33.60;47.90
796;DHT22;381;48.770;9.188;2023-07-08T10:47:51;32.80;49.10
796;DHT22;381;48.770;9.188;2023-07-08T10:53:02;32.20;49.30
796;DHT22;381;48.770;9.188;2023-07-08T10:58:36;31.50;49.70
796;DHT22;381;48.770;9.188;2023-07-08T11:04:02;30.90;51.30
796;DHT22;381;48.770;9.188;2023-07-08T11:09:08;30.40;52.20
796;DHT22;381;48.770;9.188;2023-07-08T11:14:16;30.00;52.00
796;DHT22;381;48.770;9.188;2023-07-08T11:19:24;29.70;52.20
796;DHT22;381;48.770;9.188;2023-07-08T11:24:31;29.50;53.40
796;DHT22;381;48.770;9.188;2023-07-08T11:29:39;29.50;54.00
796;DHT22;381;48.770;9.188;2023-07-08T11:34:47;29.60;54.50
796;DHT22;381;48.770;9.188;2023-07-08T11:39:55;29.80;52.30
796;DHT22;381;48.770;9.188;2023-07-08T11:44:59;29.80;52.70
796;DHT22;381;48.770;9.188;2023-07-08T11:50:20;29.80;51.70
796;DHT22;381;48.770;9.188;2023-07-08T11:55:26;29.70;52.40
796;DHT22;381;48.770;9.188;2023-07-08T12:00:32;29.50;52.90
796;DHT22;381;48.770;9.188;2023-07-08T12:05:37;29.30;53.80
796;DHT22;381;48.770;9.188;2023-07-08T12:10:41;29.20;53.70
796;DHT22;381;48.770;9.188;2023-07-08T12:15:47;29.00;54.20
796;DHT22;381;48.770;9.188;2023-07-08T12:20:52;28.90;54.70
796;DHT22;381;48.770;9.188;2023-07-08T12:25:57;28.90;54.40
796;DHT22;381;48.770;9.188;2023-07-08T12:30:59;28.90;56.40
796;DHT22;381;48.770;9.188;2023-07-08T12:36:03;28.70;55.30
796;DHT22;381;48.770;9.188;2023-07-08T12:41:10;28.70;55.10
796;DHT22;381;48.770;9.188;2023-07-08T12:46:14;28.70;54.20
796;DHT22;381;48.770;9.188;2023-07-08T12:51:19;28.70;55.10
796;DHT22;381;48.770;9.188;2023-07-08T12:56:23;28.70;55.40
796;DHT22;381;48.770;9.188;2023-07-08T13:01:29;28.70;54.90
796;DHT22;381;48.770;9.188;2023-07-08T13:06:34;28.70;54.30
796;DHT22;381;48.770;9.188;2023-07-08T13:11:37;28.70;55.20
796;DHT22;381;48.770;9.188;2023-07-08T13:16:39;28.70;53.40
796;DHT22;381;48.770;9.188;2023-07-08T13:21:43;28.80;54.00
796;DHT22;381;48.770;9.188;2023-07-08T13:26:47;28.90;54.60
796;DHT22;381;48.770;9.188;2023-07-08T13:31:56;28.90;55.20
796;DHT22;381;48.770;9.188;2023-07-08T13:36:59;28.90;54.10
796;DHT22;381;48.770;9.188;2023-07-08T13:42:03;29.00;52.70
796;DHT22;381;48.770;9.188;2023-07-08T13:47:19;29.00;52.40
796;DHT22;381;48.770;9.188;2023-07-08T13:52:23;29.00;53.20
796;DHT22;381;48.770;9.188;2023-07-08T13:57:31;28.90;54.00
796;DHT22;381;48.770;9.188;2023-07-08T14:02:34;28.90;52.60
796;DHT22;381;48.770;9.188;2023-07-08T14:07:38;28.80;53.80
796;DHT22;381;48.770;9.188;2023-07-08T14:12:41;28.90;52.90
796;DHT22;381;48.770;9.188;2023-07-08T14:17:43;28.90;51.10
796;DHT22;381;48.770;9.188;2023-07-08T14:22:46;29.00;52.40
796;DHT22;381;48.770;9.188;2023-07-08T14:27:48;29.20;53.00
796;DHT22;381;48.770;9.188;2023-07-08T14:32:50;29.30;53.40
796;DHT22;381;48.770;9.188;2023-07-08T14:37:54;29.40;52.40
796;DHT22;381;48.770;9.188;2023-07-08T14:42:59;29.50;52.00
796;DHT22;381;48.770;9.188;2023-07-08T14:48:01;29.50;52.70
796;DHT22;381;48.770;9.188;2023-07-08T14:53:05;29.70;52.30
796;DHT22;381;48.770;9.188;2023-07-08T14:58:08;29.70;52.70
796;DHT22;381;48.770;9.188;2023-07-08T15:03:11;29.90;53.20
796;DHT22;381;48.770;9.188;2023-07-08T15:08:15;29.80;52.10
796;DHT22;381;48.770;9.188;2023-07-08T15:13:19;29.80;53.10
796;DHT22;381;48.770;9.188;2023-07-08T15:18:22;29.80;51.10
796;DHT22;381;48.770;9.188;2023-07-08T15:23:26;29.90;53.60
796;DHT22;381;48.770;9.188;2023-07-08T15:28:39;29.80;53.10
796;DHT22;381;48.770;9.188;2023-07-08T15:33:42;29.90;52.80
796;DHT22;381;48.770;9.188;2023-07-08T15:38:46;29.80;52.10
796;DHT22;381;48.770;9.188;2023-07-08T15:43:49;29.70;54.50
796;DHT22;381;48.770;9.188;2023-07-08T15:48:51;29.70;52.60
796;DHT22;381;48.770;9.188;2023-07-08T15:53:54;29.70;52.40
796;DHT22;381;48.770;9.188;2023-07-08T15:58:56;29.50;52.90
796;DHT22;381;48.770;9.188;2023-07-08T16:03:58;29.40;53.30
796;DHT22;381;48.770;9.188;2023-07-08T16:09:02;29.50;53.40
796;DHT22;381;48.770;9.188;2023-07-08T16:14:04;29.50;52.60
796;DHT22;381;48.770;9.188;2023-07-08T16:19:09;29.50;53.70
796;DHT22;381;48.770;9.188;2023-07-08T16:24:13;29.50;52.70
796;DHT22;381;48.770;9.188;2023-07-08T16:29:16;29.50;51.50
796;DHT22;381;48.770;9.188;2023-07-08T16:34:18;29.50;53.80
796;DHT22;381;48.770;9.188;2023-07-08T16:39:21;29.40;53.70
796;DHT22;381;48.770;9.188;2023-07-08T16:44:24;29.40;52.60
796;DHT22;381;48.770;9.188;2023-07-08T16:49:26;29.50;52.80
796;DHT22;381;48.770;9.188;2023-07-08T16:54:29;29.60;52.50
796;DHT22;381;48.770;9.188;2023-07-08T16:59:31;29.50;51.50
796;DHT22;381;48.770;9.188;2023-07-08T17:04:33;29.60;52.20
796;DHT22;381;48.770;9.188;2023-07-08T17:09:38;29.50;52.50
796;DHT22;381;48.770;9.188;2023-07-08T17:14:40;29.60;51.60
796;DHT22;381;48.770;9.188;2023-07-08T17:19:42;29.60;51.10
796;DHT22;381;48.770;9.188;2023-07-08T17:24:46;29.60;52.70
796;DHT22;381;48.770;9.188;2023-07-08T17:29:48;29.50;52.30
796;DHT22;381;48.770;9.188;2023-07-08T17:34:50;29.50;51.70
796;DHT22;381;48.770;9.188;2023-07-08T17:39:54;29.50;52.90
796;DHT22;381;48.770;9.188;2023-07-08T17:44:56;29.40;54.10
796;DHT22;381;48.770;9.188;2023-07-08T17:49:58;29.30;54.40
796;DHT22;381;48.770;9.188;2023-07-08T17:55:01;29.20;54.40
796;DHT22;381;48.770;9.188;2023-07-08T18:00:10;29.10;52.90
796;DHT22;381;48.770;9.188;2023-07-08T18:05:16;29.20;53.00
796;DHT22;381;48.770;9.188;2023-07-08T18:10:23;29.30;52.80
796;DHT22;381;48.770;9.188;2023-07-08T18:15:28;29.20;52.90
796;DHT22;381;48.770;9.188;2023-07-08T18:20:32;29.40;52.70
796;DHT22;381;48.770;9.188;2023-07-08T18:25:36;29.30;52.90
796;DHT22;381;48.770;9.188;2023-07-08T18:30:38;29.20;53.80
796;DHT22;381;48.770;9.188;2023-07-08T18:35:41;29.00;54.20
796;DHT22;381;48.770;9.188;2023-07-08T18:40:44;28.90;55.30
796;DHT22;381;48.770;9.188;2023-07-08T18:45:48;28.70;57.20
796;DHT22;381;48.770;9.188;2023-07-08T18:50:53;28.40;59.60
796;DHT22;381;48.770;9.188;2023-07-08T18:55:58;28.20;59.30
796;DHT22;381;48.770;9.188;2023-07-08T19:01:00;28.10;58.40
796;DHT22;381;48.770;9.188;2023-07-08T19:06:02;28.00;57.90
796;DHT22;381;48.770;9.188;2023-07-08T19:11:16;27.90;58.40
796;DHT22;381;48.770;9.188;2023-07-08T19:16:19;27.80;59.40
796;DHT22;381;48.770;9.188;2023-07-08T19:21:24;27.70;58.80
796;DHT22;381;48.770;9.188;2023-07-08T19:26:28;27.60;58.40
796;DHT22;381;48.770;9.188;2023-07-08T19:31:32;27.60;59.70
796;DHT22;381;48.770;9.188;2023-07-08T19:36:35;27.50;59.30
796;DHT22;381;48.770;9.188;2023-07-08T19:41:38;27.40;59.90
796;DHT22;381;48.770;9.188;2023-07-08T19:46:41;27.30;59.60
796;DHT22;381;48.770;9.188;2023-07-08T19:51:43;27.20;61.30
796;DHT22;381;48.770;9.188;2023-07-08T19:56:46;27.20;60.70
796;DHT22;381;48.770;9.188;2023-07-08T20:01:48;27.10;61.10
796;DHT22;381;48.770;9.188;2023-07-08T20:06:50;27.00;61.10
796;DHT22;381;48.770;9.188;2023-07-08T20:11:54;26.90;60.60
796;DHT22;381;48.770;9.188;2023-07-08T20:16:56;26.90;60.90
796;DHT22;381;48.770;9.188;2023-07-08T20:21:58;26.80;61.90
796;DHT22;381;48.770;9.188;2023-07-08T20:27:02;26.70;62.90
796;DHT22;381;48.770;9.188;2023-07-08T20:32:06;26.60;62.10
796;DHT22;381;48.770;9.188;2023-07-08T20:37:10;26.60;61.60
796;DHT22;381;48.770;9.188;2023-07-08T20:42:14;26.50;61.60
796;DHT22;381;48.770;9.188;2023-07-08T20:47:16;26.40;64.40
796;DHT22;381;48.770;9.188;2023-07-08T20:52:19;26.40;65.60
796;DHT22;381;48.770;9.188;2023-07-08T20:57:22;26.20;64.10
796;DHT22;381;48.770;9.188;2023-07-08T21:02:26;26.20;64.70
796;DHT22;381;48.770;9.188;2023-07-08T21:07:28;26.20;64.00
796;DHT22;381;48.770;9.188;2023-07-08T21:12:31;26.10;64.50
796;DHT22;381;48.770;9.188;2023-07-08T21:17:34;26.00;64.40
796;DHT22;381;48.770;9.188;2023-07-08T21:22:37;26.00;64.60
796;DHT22;381;48.770;9.188;2023-07-08T21:27:41;25.90;65.00
796;DHT22;381;48.770;9.188;2023-07-08T21:32:45;25.80;65.20
796;DHT22;381;48.770;9.188;2023-07-08T21:37:49;25.80;65.90
796;DHT22;381;48.770;9.188;2023-07-08T21:42:53;25.70;66.60
796;DHT22;381;48.770;9.188;2023-07-08T21:47:56;25.60;66.50
796;DHT22;381;48.770;9.188;2023-07-08T21:53:00;25.60;66.30
796;DHT22;381;48.770;9.188;2023-07-08T21:58:04;25.50;66.70
796;DHT22;381;48.770;9.188;2023-07-08T22:03:11;25.50;66.90
796;DHT22;381;48.770;9.188;2023-07-08T22:08:15;25.40;67.20
796;DHT22;381;48.770;9.188;2023-07-08T22:13:24;25.40;67.30
796;DHT22;381;48.770;9.188;2023-07-08T22:18:27;25.30;67.60
796;DHT22;381;48.770;9.188;2023-07-08T22:23:30;25.30;67.60
796;DHT22;381;48.770;9.188;2023-07-08T22:28:33;25.30;67.60
796;DHT22;381;48.770;9.188;2023-07-08T22:33:35;25.30;67.70
796;DHT22;381;48.770;9.188;2023-07-08T22:38:37;25.30;67.80
796;DHT22;381;48.770;9.188;2023-07-08T22:43:41;25.20;68.00
796;DHT22;381;48.770;9.188;2023-07-08T22:48:43;25.20;68.80
796;DHT22;381;48.770;9.188;2023-07-08T22:53:45;25.20;69.20
796;DHT22;381;48.770;9.188;2023-07-08T22:58:48;25.10;69.10
796;DHT22;381;48.770;9.188;2023-07-08T23:03:51;25.10;69.60
796;DHT22;381;48.770;9.188;2023-07-08T23:08:53;25.00;69.90
796;DHT22;381;48.770;9.188;2023-07-08T23:13:56;24.90;70.10
796;DHT22;381;48.770;9.188;2023-07-08T23:18:59;24.80;70.50
796;DHT22;381;48.770;9.188;2023-07-08T23:24:23;24.80;70.80
796;DHT22;381;48.770;9.188;2023-07-08T23:29:26;24.70;70.80
796;DHT22;381;48.770;9.188;2023-07-08T23:34:28;24.70;70.70
796;DHT22;381;48.770;9.188;2023-07-08T23:39:31;24.70;70.90
796;DHT22;381;48.770;9.188;2023-07-08T23:44:34;24.60;71.10
796;DHT22;381;48.770;9.188;2023-07-08T23:49:36;24.50;71.60
796;DHT22;381;48.770;9.188;2023-07-08T23:54:40;24.50;71.90
796;DHT22;381;48.770;9.188;2023-07-08T23:59:46;24.50;71.80
